createdAt,value
2019-03-24T00:00:39.987Z,69.70
2019-03-24T00:03:09.296Z,69.50
2019-03-24T00:05:39.284Z,70.20
2019-03-24T00:08:08.872Z,69.30
2019-03-24T00:10:38.501Z,69.20
2019-03-24T00:13:08.136Z,69.20
2019-03-24T00:15:37.486Z,69.70
2019-03-24T00:18:07.305Z,70.20
2019-03-24T00:20:36.622Z,71.30
2019-03-24T00:23:06.209Z,70.40
2019-03-24T00:25:35.826Z,69.80
2019-03-24T00:28:05.588Z,69.70
2019-03-24T00:30:35.544Z,69.60
2019-03-24T00:33:04.848Z,69.60
2019-03-24T00:35:34.405Z,68.90
2019-03-24T00:38:04.138Z,68.70
2019-03-24T00:40:33.487Z,68.80
2019-03-24T00:43:02.869Z,68.80
2019-03-24T00:45:36.719Z,69.10
2019-03-24T00:48:03.632Z,69.30
2019-03-24T00:50:33.491Z,69.30
2019-03-24T00:53:03.161Z,70.00
2019-03-24T00:55:32.547Z,70.10
2019-03-24T00:58:02.147Z,70.40
2019-03-24T01:00:48.134Z,70.40
2019-03-24T01:03:17.824Z,70.80
2019-03-24T01:05:47.750Z,71.70
2019-03-24T01:08:17.566Z,72.00
2019-03-24T01:10:46.908Z,72.10
2019-03-24T01:13:16.211Z,72.20
2019-03-24T01:15:47.943Z,72.00
2019-03-24T01:18:18.066Z,72.10
2019-03-24T01:20:47.627Z,72.60
2019-03-24T01:23:16.965Z,72.40
2019-03-24T01:25:46.443Z,72.30
2019-03-24T01:28:15.772Z,72.20
2019-03-24T01:30:45.437Z,72.10
2019-03-24T01:33:15.066Z,73.10
2019-03-24T01:35:44.458Z,73.20
2019-03-24T01:38:13.781Z,73.10
2019-03-24T01:40:43.184Z,73.30
2019-03-24T01:43:12.579Z,73.40
2019-03-24T01:45:42.569Z,72.90
2019-03-24T01:48:12.275Z,73.40
2019-03-24T01:50:42.245Z,74.00
2019-03-24T01:53:11.828Z,75.00
2019-03-24T01:55:41.502Z,75.10
2019-03-24T01:58:11.123Z,75.10
2019-03-24T02:00:40.791Z,75.90
2019-03-24T02:03:10.791Z,75.50
2019-03-24T02:05:40.136Z,75.30
2019-03-24T02:08:09.506Z,74.90
2019-03-24T02:10:39.003Z,74.40
2019-03-24T02:13:08.371Z,74.30
2019-03-24T02:15:38.000Z,74.30
2019-03-24T02:18:07.591Z,73.80
2019-03-24T02:20:36.904Z,73.80
2019-03-24T02:23:06.235Z,74.00
2019-03-24T02:25:35.613Z,74.20
2019-03-24T02:28:04.989Z,73.70
2019-03-24T02:30:34.369Z,74.30
2019-03-24T02:33:03.781Z,74.70
2019-03-24T02:35:33.160Z,75.00
2019-03-24T02:38:02.580Z,75.10
2019-03-24T02:40:32.649Z,75.00
2019-03-24T02:43:02.537Z,74.10
2019-03-24T02:45:31.847Z,73.90
2019-03-24T02:48:01.465Z,74.40
2019-03-24T02:50:30.842Z,75.00
2019-03-24T02:53:00.164Z,75.60
2019-03-24T02:55:29.631Z,75.80
2019-03-24T02:57:59.233Z,76.10
2019-03-24T03:00:28.843Z,76.90
2019-03-24T03:02:58.159Z,76.90
2019-03-24T03:05:27.490Z,77.00
2019-03-24T03:07:56.857Z,76.70
2019-03-24T03:10:26.280Z,76.50
2019-03-24T03:12:55.605Z,76.60
2019-03-24T03:15:24.984Z,77.20
2019-03-24T03:17:54.294Z,77.70
2019-03-24T03:20:23.987Z,78.10
2019-03-24T03:22:53.283Z,77.70
2019-03-24T03:25:22.588Z,77.50
2019-03-24T03:27:52.196Z,77.40
2019-03-24T03:30:21.527Z,77.10
2019-03-24T03:32:51.161Z,76.60
2019-03-24T03:35:20.621Z,76.80
2019-03-24T03:37:50.523Z,76.30
2019-03-24T03:40:22.700Z,76.30
2019-03-24T03:42:52.035Z,76.00
2019-03-24T03:45:28.005Z,75.80
2019-03-24T03:47:57.461Z,75.30
2019-03-24T03:50:26.912Z,75.30
2019-03-24T03:52:56.400Z,75.50
2019-03-24T03:55:25.784Z,75.90
2019-03-24T03:57:55.388Z,75.90
2019-03-24T04:00:33.964Z,75.80
2019-03-24T04:03:04.679Z,75.60
2019-03-24T04:05:34.121Z,75.40
2019-03-24T04:08:04.226Z,75.10
2019-03-24T04:10:33.958Z,74.50
2019-03-24T04:13:03.727Z,74.40
2019-03-24T04:15:33.082Z,74.30
2019-03-24T04:18:02.823Z,74.30
2019-03-24T04:20:32.440Z,74.60
2019-03-24T04:23:02.055Z,74.60
2019-03-24T04:25:31.353Z,74.60
2019-03-24T04:28:01.218Z,75.40
2019-03-24T04:30:30.909Z,75.60
2019-03-24T04:33:00.407Z,75.70
2019-03-24T04:35:29.789Z,75.90
2019-03-24T04:37:59.522Z,76.00
2019-03-24T04:40:28.828Z,75.90
2019-03-24T04:42:58.913Z,76.00
2019-03-24T04:45:28.520Z,75.90
2019-03-24T04:47:57.836Z,75.90
2019-03-24T04:50:27.167Z,76.40
2019-03-24T04:52:56.556Z,76.80
2019-03-24T04:55:26.174Z,77.40
2019-03-24T04:57:55.871Z,78.00
2019-03-24T05:00:35.559Z,78.20
2019-03-24T05:03:04.995Z,77.90
2019-03-24T05:05:34.686Z,77.50
2019-03-24T05:08:04.247Z,77.20
2019-03-24T05:10:33.618Z,76.60
2019-03-24T05:13:02.944Z,75.90
2019-03-24T05:15:32.939Z,75.10
2019-03-24T05:18:02.551Z,75.10
2019-03-24T05:20:32.126Z,75.40
2019-03-24T05:23:01.447Z,75.80
2019-03-24T05:25:31.112Z,76.30
2019-03-24T05:28:00.457Z,77.40
2019-03-24T05:30:30.485Z,78.10
2019-03-24T05:32:59.827Z,78.10
2019-03-24T05:35:29.468Z,79.10
2019-03-24T05:37:58.789Z,79.00
2019-03-24T05:40:28.095Z,78.70
2019-03-24T05:42:57.689Z,79.10
2019-03-24T05:45:27.002Z,79.80
2019-03-24T05:47:56.302Z,80.80
2019-03-24T05:50:25.626Z,80.80
2019-03-24T05:52:55.036Z,80.50
2019-03-24T05:55:24.399Z,79.90
2019-03-24T05:57:53.703Z,79.20
2019-03-24T06:00:23.013Z,78.40
2019-03-24T06:02:52.319Z,77.90
2019-03-24T06:05:22.116Z,77.60
2019-03-24T06:07:51.946Z,77.50
2019-03-24T06:10:21.540Z,77.70
2019-03-24T06:12:50.935Z,77.90
2019-03-24T06:15:20.304Z,78.20
2019-03-24T06:17:50.162Z,77.90
2019-03-24T06:20:20.113Z,78.10
2019-03-24T06:22:49.820Z,78.00
2019-03-24T06:25:19.226Z,77.60
2019-03-24T06:27:48.554Z,77.70
2019-03-24T06:30:17.978Z,78.00
2019-03-24T06:32:47.668Z,78.30
2019-03-24T06:35:17.303Z,78.20
2019-03-24T06:37:46.729Z,78.10
2019-03-24T06:40:16.516Z,78.10
2019-03-24T06:42:45.829Z,78.30
2019-03-24T06:45:15.310Z,78.10
2019-03-24T06:47:44.632Z,78.00
2019-03-24T06:50:14.093Z,78.10
2019-03-24T06:52:43.971Z,78.60
2019-03-24T06:55:13.668Z,79.00
2019-03-24T06:57:42.980Z,79.10
2019-03-24T07:00:12.773Z,79.20
2019-03-24T07:02:42.126Z,79.50
2019-03-24T07:05:11.924Z,79.80
2019-03-24T07:07:41.279Z,79.70
2019-03-24T07:10:11.243Z,79.10
2019-03-24T07:12:40.668Z,79.60
2019-03-24T07:15:10.232Z,79.40
2019-03-24T07:17:39.717Z,79.40
2019-03-24T07:20:09.976Z,78.60
2019-03-24T07:22:39.327Z,78.80
2019-03-24T07:25:09.171Z,78.90
2019-03-24T07:27:38.494Z,79.70
2019-03-24T07:30:08.961Z,80.10
2019-03-24T07:32:38.673Z,80.00
2019-03-24T07:35:08.488Z,79.70
2019-03-24T07:37:37.957Z,79.10
2019-03-24T07:40:08.937Z,79.10
2019-03-24T07:42:38.251Z,78.50
2019-03-24T07:45:09.144Z,79.80
2019-03-24T07:47:38.487Z,80.30
2019-03-24T07:50:08.634Z,81.30
2019-03-24T07:52:38.044Z,82.00
2019-03-24T07:55:07.841Z,82.40
2019-03-24T07:57:37.514Z,82.90
2019-03-24T08:00:08.184Z,82.60
2019-03-24T08:02:37.606Z,82.60
2019-03-24T08:05:07.648Z,82.60
2019-03-24T08:07:37.251Z,82.10
2019-03-24T08:10:07.576Z,81.50
2019-03-24T08:12:36.926Z,82.00
2019-03-24T08:15:07.391Z,80.60
2019-03-24T08:17:36.859Z,80.20
2019-03-24T08:20:06.662Z,79.70
2019-03-24T08:22:36.008Z,78.70
2019-03-24T08:25:06.038Z,78.60
2019-03-24T08:27:35.375Z,78.10
2019-03-24T08:30:05.672Z,78.70
2019-03-24T08:32:35.357Z,78.10
2019-03-24T08:35:04.843Z,78.30
2019-03-24T08:37:34.604Z,79.10
2019-03-24T08:40:04.129Z,78.90
2019-03-24T08:42:33.522Z,78.40
2019-03-24T08:45:02.959Z,78.40
2019-03-24T08:47:32.346Z,78.00
2019-03-24T08:50:02.034Z,77.70
2019-03-24T08:52:32.184Z,78.40
2019-03-24T08:55:01.775Z,78.20
2019-03-24T08:57:32.597Z,78.80
2019-03-24T09:00:03.903Z,78.50
2019-03-24T09:02:34.053Z,78.40
2019-03-24T09:05:03.390Z,77.70
2019-03-24T09:07:32.801Z,77.30
2019-03-24T09:10:02.130Z,77.40
2019-03-24T09:12:31.531Z,77.50
2019-03-24T09:15:01.104Z,78.00
2019-03-24T09:17:30.443Z,79.30
2019-03-24T09:19:59.904Z,78.60
2019-03-24T09:22:29.832Z,79.00
2019-03-24T09:24:59.725Z,79.30
2019-03-24T09:27:29.413Z,78.10
2019-03-24T09:29:58.735Z,77.90
2019-03-24T09:32:28.073Z,78.60
2019-03-24T09:34:57.687Z,77.90
2019-03-24T09:37:27.014Z,78.30
2019-03-24T09:39:56.348Z,78.10
2019-03-24T09:42:25.662Z,78.30
2019-03-24T09:44:54.992Z,77.30
2019-03-24T09:47:24.363Z,77.60
2019-03-24T09:49:54.054Z,77.70
2019-03-24T09:52:23.696Z,77.20
2019-03-24T09:54:53.011Z,77.00
2019-03-24T09:57:22.330Z,76.80
2019-03-24T09:59:52.341Z,76.60
2019-03-24T10:02:22.354Z,76.40
2019-03-24T10:04:52.318Z,75.80
2019-03-24T10:07:21.998Z,75.80
2019-03-24T10:09:51.658Z,76.90
2019-03-24T10:12:21.291Z,76.00
2019-03-24T10:14:51.153Z,76.20
2019-03-24T10:17:20.459Z,76.50
2019-03-24T10:19:50.131Z,75.80
2019-03-24T10:22:19.973Z,75.50
2019-03-24T10:24:49.627Z,76.10
2019-03-24T10:27:19.025Z,75.60
2019-03-24T10:29:48.657Z,74.10
2019-03-24T10:32:18.280Z,73.10
2019-03-24T10:34:48.186Z,72.90
2019-03-24T10:37:18.106Z,71.50
2019-03-24T10:39:47.809Z,70.90
2019-03-24T10:42:17.723Z,71.10
2019-03-24T10:44:47.425Z,70.40
2019-03-24T10:47:17.605Z,70.80
2019-03-24T10:49:46.980Z,71.00
2019-03-24T10:52:16.295Z,72.20
2019-03-24T10:54:45.625Z,71.80
2019-03-24T10:57:15.056Z,70.50
2019-03-24T10:59:44.676Z,69.60
2019-03-24T11:02:14.067Z,70.70
2019-03-24T11:04:44.187Z,69.90
2019-03-24T11:07:13.909Z,69.10
2019-03-24T11:09:45.118Z,68.60
2019-03-24T11:12:14.667Z,67.40
2019-03-24T11:14:44.975Z,67.30
2019-03-24T11:17:14.578Z,67.00
2019-03-24T11:19:43.986Z,68.10
2019-03-24T11:22:13.285Z,68.30
2019-03-24T11:24:42.678Z,70.00
2019-03-24T11:27:12.738Z,69.20
2019-03-24T11:29:42.063Z,69.70
2019-03-24T11:32:11.978Z,69.30
2019-03-24T11:34:41.392Z,68.50
2019-03-24T11:37:10.694Z,68.10
2019-03-24T11:39:40.046Z,68.60
2019-03-24T11:42:09.759Z,67.00
2019-03-24T11:44:39.695Z,66.90
2019-03-24T11:47:09.011Z,65.80
2019-03-24T11:49:46.059Z,66.90
2019-03-24T11:52:09.724Z,66.90
2019-03-24T11:54:39.609Z,66.50
2019-03-24T11:57:08.924Z,67.90
2019-03-24T11:59:38.573Z,67.50
2019-03-24T12:02:08.106Z,66.80
2019-03-24T12:04:38.215Z,65.60
2019-03-24T12:07:07.926Z,62.60
2019-03-24T12:09:37.693Z,62.50
2019-03-24T12:12:07.135Z,63.10
2019-03-24T12:14:36.909Z,62.20
2019-03-24T12:17:06.320Z,61.50
2019-03-24T12:19:35.647Z,59.80
2019-03-24T12:22:05.343Z,60.30
2019-03-24T12:24:34.699Z,60.50
2019-03-24T12:27:04.728Z,60.60
2019-03-24T12:29:34.373Z,60.80
2019-03-24T12:32:03.801Z,61.10
2019-03-24T12:34:33.151Z,60.10
2019-03-24T12:37:02.757Z,61.10
2019-03-24T12:39:32.075Z,60.60
2019-03-24T12:42:01.740Z,61.40
2019-03-24T12:44:31.103Z,61.20
2019-03-24T12:47:00.419Z,62.30
2019-03-24T12:49:30.046Z,61.80
2019-03-24T12:51:59.430Z,62.60
2019-03-24T12:54:28.753Z,61.80
2019-03-24T12:56:58.420Z,62.80
2019-03-24T12:59:27.980Z,62.50
2019-03-24T13:01:57.689Z,61.20
2019-03-24T13:04:27.003Z,62.60
2019-03-24T13:06:56.345Z,64.00
2019-03-24T13:09:25.683Z,62.50
2019-03-24T13:11:55.127Z,61.10
2019-03-24T13:14:24.524Z,61.20
2019-03-24T13:16:53.855Z,60.90
2019-03-24T13:19:23.239Z,60.80
2019-03-24T13:21:52.612Z,60.30
2019-03-24T13:24:22.212Z,60.70
2019-03-24T13:26:51.595Z,60.60
2019-03-24T13:29:20.919Z,60.50
2019-03-24T13:31:51.321Z,59.60
2019-03-24T13:34:20.649Z,59.60
2019-03-24T13:36:50.240Z,60.00
2019-03-24T13:39:19.624Z,59.00
2019-03-24T13:41:49.835Z,58.60
2019-03-24T13:44:20.104Z,59.10
2019-03-24T13:46:49.880Z,58.70
2019-03-24T13:49:19.440Z,58.80
2019-03-24T13:51:49.399Z,59.20
2019-03-24T13:54:19.287Z,58.50
2019-03-24T13:56:49.192Z,58.60
2019-03-24T13:59:18.872Z,58.10
2019-03-24T14:01:48.637Z,58.00
2019-03-24T14:04:17.972Z,57.40
2019-03-24T14:06:48.559Z,56.10
2019-03-24T14:09:18.173Z,56.20
2019-03-24T14:11:47.516Z,56.30
2019-03-24T14:14:16.906Z,54.90
2019-03-24T14:16:46.674Z,52.80
2019-03-24T14:19:16.643Z,53.00
2019-03-24T14:21:46.292Z,53.60
2019-03-24T14:24:15.679Z,53.60
2019-03-24T14:26:45.078Z,51.40
2019-03-24T14:29:14.748Z,50.80
2019-03-24T14:31:44.761Z,51.30
2019-03-24T14:34:14.483Z,51.60
2019-03-24T14:36:44.079Z,51.70
2019-03-24T14:39:13.716Z,50.50
2019-03-24T14:41:43.055Z,47.80
2019-03-24T14:44:12.740Z,44.90
2019-03-24T14:46:42.959Z,45.40
2019-03-24T14:49:12.852Z,45.90
2019-03-24T14:51:42.610Z,46.30
2019-03-24T14:54:12.286Z,46.40
2019-03-24T14:56:41.705Z,47.20
2019-03-24T14:59:11.026Z,48.50
2019-03-24T15:01:40.364Z,49.40
2019-03-24T15:04:09.734Z,50.60
2019-03-24T15:06:39.673Z,51.60
2019-03-24T15:09:09.178Z,52.30
2019-03-24T15:11:38.564Z,53.70
2019-03-24T15:14:08.207Z,53.50
2019-03-24T15:16:37.838Z,53.80
2019-03-24T15:19:07.838Z,52.70
2019-03-24T15:21:37.223Z,53.30
2019-03-24T15:24:06.879Z,54.00
2019-03-24T15:26:36.541Z,54.10
2019-03-24T15:29:05.929Z,54.00
2019-03-24T15:31:35.362Z,54.20
2019-03-24T15:34:05.252Z,53.80
2019-03-24T15:36:34.618Z,54.00
2019-03-24T15:39:05.873Z,54.00
2019-03-24T15:41:36.084Z,54.10
2019-03-24T15:44:05.831Z,54.00
2019-03-24T15:46:35.832Z,54.50
2019-03-24T15:49:05.880Z,54.40
2019-03-24T15:51:35.207Z,54.50
2019-03-24T15:54:04.940Z,54.40
2019-03-24T15:56:34.327Z,54.80
2019-03-24T15:59:04.558Z,54.90
2019-03-24T16:01:34.379Z,55.20
2019-03-24T16:04:04.334Z,55.00
2019-03-24T16:06:34.190Z,54.80
2019-03-24T16:09:04.764Z,54.50
2019-03-24T16:11:34.319Z,54.50
2019-03-24T16:14:03.993Z,54.20
2019-03-24T16:16:33.745Z,54.30
2019-03-24T16:19:03.086Z,51.70
2019-03-24T16:21:32.399Z,50.90
2019-03-24T16:24:02.013Z,49.10
2019-03-24T16:26:31.729Z,48.30
2019-03-24T16:29:01.589Z,48.40
2019-03-24T16:31:31.260Z,45.00
2019-03-24T16:34:00.907Z,44.70
2019-03-24T16:36:30.277Z,44.10
2019-03-24T16:39:03.742Z,44.00
2019-03-24T16:41:31.864Z,43.80
2019-03-24T16:44:01.243Z,43.80
2019-03-24T16:46:30.628Z,43.40
2019-03-24T16:49:00.245Z,43.60
2019-03-24T16:51:38.209Z,44.30
2019-03-24T16:54:01.044Z,43.90
2019-03-24T16:56:30.620Z,44.30
2019-03-24T16:59:00.348Z,45.00
2019-03-24T17:01:29.988Z,45.50
2019-03-24T17:03:59.652Z,44.80
2019-03-24T17:06:29.218Z,45.40
2019-03-24T17:08:59.206Z,45.60
2019-03-24T17:11:29.384Z,45.70
2019-03-24T17:13:59.030Z,46.20
2019-03-24T17:16:29.007Z,46.90
2019-03-24T17:18:59.121Z,48.10
2019-03-24T17:21:28.877Z,47.50
2019-03-24T17:23:58.576Z,47.70
2019-03-24T17:26:28.478Z,49.00
2019-03-24T17:28:58.307Z,49.20
2019-03-24T17:31:27.700Z,48.80
2019-03-24T17:33:57.043Z,48.50
2019-03-24T17:36:26.680Z,48.40
2019-03-24T17:38:56.361Z,48.60
2019-03-24T17:41:26.022Z,49.40
2019-03-24T17:44:03.083Z,49.80
2019-03-24T17:46:27.090Z,50.20
2019-03-24T17:48:56.901Z,50.50
2019-03-24T17:51:26.308Z,50.70
2019-03-24T17:53:56.265Z,50.60
2019-03-24T17:56:25.899Z,49.90
2019-03-24T17:58:55.553Z,49.90
2019-03-24T18:01:24.942Z,50.50
2019-03-24T18:03:54.246Z,50.60
2019-03-24T18:06:23.832Z,50.50
2019-03-24T18:08:53.177Z,50.40
2019-03-24T18:11:25.868Z,50.40
2019-03-24T18:13:55.571Z,50.30
2019-03-24T18:16:24.898Z,50.00
2019-03-24T18:18:54.236Z,48.70
2019-03-24T18:21:23.900Z,48.20
2019-03-24T18:23:53.300Z,47.90
2019-03-24T18:26:22.988Z,48.10
2019-03-24T18:28:52.622Z,48.80
2019-03-24T18:31:21.996Z,48.80
2019-03-24T18:33:51.313Z,48.30
2019-03-24T18:36:20.617Z,46.70
2019-03-24T18:38:50.475Z,46.50
2019-03-24T18:41:20.375Z,47.20
2019-03-24T18:43:49.971Z,46.70
2019-03-24T18:46:19.606Z,45.90
2019-03-24T18:48:48.912Z,46.10
2019-03-24T18:51:18.215Z,46.10
2019-03-24T18:53:47.506Z,46.30
2019-03-24T18:56:16.832Z,46.00
2019-03-24T18:58:46.401Z,45.70
2019-03-24T19:01:15.984Z,46.50
2019-03-24T19:03:45.681Z,46.30
2019-03-24T19:06:15.008Z,45.90
2019-03-24T19:08:44.397Z,46.00
2019-03-24T19:11:13.693Z,46.50
2019-03-24T19:13:43.002Z,46.60
2019-03-24T19:16:12.702Z,47.00
2019-03-24T19:18:42.248Z,46.40
2019-03-24T19:21:11.589Z,46.10
2019-03-24T19:23:40.912Z,46.40
2019-03-24T19:26:10.564Z,46.20
2019-03-24T19:28:39.943Z,45.90
2019-03-24T19:31:09.263Z,46.80
2019-03-24T19:33:38.930Z,46.70
2019-03-24T19:36:08.641Z,47.40
2019-03-24T19:38:39.148Z,46.90
2019-03-24T19:41:08.484Z,46.30
2019-03-24T19:43:39.839Z,46.60
2019-03-24T19:46:09.259Z,46.70
2019-03-24T19:48:38.855Z,47.50
2019-03-24T19:51:08.318Z,47.10
2019-03-24T19:53:37.928Z,47.50
2019-03-24T19:56:07.227Z,48.20
2019-03-24T19:58:36.571Z,48.00
2019-03-24T20:01:06.251Z,47.90
2019-03-24T20:03:35.564Z,48.40
2019-03-24T20:06:05.235Z,48.60
2019-03-24T20:08:34.591Z,48.70
2019-03-24T20:11:03.914Z,49.10
2019-03-24T20:13:33.530Z,49.40
2019-03-24T20:16:03.140Z,49.80
2019-03-24T20:18:32.518Z,49.90
2019-03-24T20:21:02.177Z,49.90
2019-03-24T20:23:31.548Z,50.10
2019-03-24T20:26:00.867Z,50.30
2019-03-24T20:28:30.171Z,50.40
2019-03-24T20:30:59.794Z,50.40
2019-03-24T20:33:29.526Z,50.00
2019-03-24T20:35:59.598Z,50.20
2019-03-24T20:38:28.912Z,50.40
2019-03-24T20:40:58.531Z,50.30
2019-03-24T20:43:27.847Z,50.70
2019-03-24T20:45:57.276Z,50.70
2019-03-24T20:48:27.252Z,50.50
2019-03-24T20:50:56.645Z,50.50
2019-03-24T20:53:26.293Z,50.80
2019-03-24T20:55:55.606Z,50.50
2019-03-24T20:58:25.252Z,50.70
2019-03-24T21:00:54.894Z,50.80
2019-03-24T21:03:24.212Z,51.00
2019-03-24T21:05:53.804Z,50.80
2019-03-24T21:08:23.106Z,50.90
2019-03-24T21:10:52.866Z,51.40
2019-03-24T21:13:22.796Z,51.50
2019-03-24T21:15:52.122Z,51.20
2019-03-24T21:18:21.422Z,51.30
2019-03-24T21:20:51.087Z,51.00
2019-03-24T21:23:29.110Z,50.50
2019-03-24T21:25:51.592Z,50.50
2019-03-24T21:28:20.899Z,50.60
2019-03-24T21:30:50.198Z,50.40
2019-03-24T21:33:19.511Z,51.00
2019-03-24T21:35:49.081Z,50.80
2019-03-24T21:38:18.654Z,51.30
2019-03-24T21:40:47.980Z,51.40
2019-03-24T21:43:17.352Z,51.40
2019-03-24T21:45:47.281Z,51.30
2019-03-24T21:48:16.676Z,51.70
2019-03-24T21:50:45.975Z,51.80
2019-03-24T21:53:15.944Z,52.10
2019-03-24T21:55:45.496Z,52.30
2019-03-24T21:58:15.096Z,52.60
2019-03-24T22:00:44.617Z,52.50
2019-03-24T22:03:14.028Z,52.60
2019-03-24T22:05:43.349Z,52.60
2019-03-24T22:08:12.758Z,52.80
2019-03-24T22:10:42.512Z,53.00
2019-03-24T22:13:11.864Z,53.30
2019-03-24T22:15:41.172Z,53.30
2019-03-24T22:18:11.127Z,53.10
2019-03-24T22:20:48.886Z,53.20
2019-03-24T22:23:11.600Z,53.40
2019-03-24T22:25:40.990Z,53.80
2019-03-24T22:28:10.663Z,54.10
2019-03-24T22:30:39.975Z,54.30
2019-03-24T22:33:09.299Z,54.50
2019-03-24T22:35:38.645Z,54.80
2019-03-24T22:38:08.324Z,55.00
2019-03-24T22:40:37.628Z,55.00
2019-03-24T22:43:07.156Z,55.60
2019-03-24T22:45:36.966Z,55.60
2019-03-24T22:48:07.033Z,56.10
2019-03-24T22:50:36.363Z,56.30
2019-03-24T22:53:05.833Z,56.30
2019-03-24T22:55:35.144Z,56.80
2019-03-24T22:58:04.576Z,56.90
2019-03-24T23:00:54.223Z,56.90
2019-03-24T23:03:25.342Z,57.20
2019-03-24T23:05:55.080Z,57.70
2019-03-24T23:08:24.541Z,57.80
2019-03-24T23:10:53.844Z,57.90
2019-03-24T23:13:23.151Z,58.20
2019-03-24T23:15:52.785Z,58.10
2019-03-24T23:18:22.487Z,58.10
2019-03-24T23:20:51.854Z,58.40
2019-03-24T23:23:21.502Z,58.30
2019-03-24T23:25:50.786Z,58.40
2019-03-24T23:28:20.108Z,58.50
2019-03-24T23:30:49.414Z,59.10
2019-03-24T23:33:18.828Z,59.00
2019-03-24T23:35:48.214Z,59.00
2019-03-24T23:38:17.870Z,58.70
2019-03-24T23:40:47.449Z,58.80
2019-03-24T23:43:17.127Z,58.70
2019-03-24T23:45:46.511Z,59.00
2019-03-24T23:48:15.848Z,59.20
2019-03-24T23:50:45.138Z,59.40
2019-03-24T23:53:14.778Z,59.20
2019-03-24T23:55:44.436Z,59.40
2019-03-24T23:58:13.772Z,59.80
